Terminal Aerodrome Forecast
Issued by NWS

Home | Current Version | Previous Version | Text Only | Print | Product List | Glossary On
Versions: 1 2 3 4 5 6 7 8 9 10 11 12 13 14 15 16
000
FTUS45 KFGZ 271134
TAFPRC
TAF
KPRC 271134Z 2712/2812 20005KT P6SM BKN200
     FM271800 20009G16KT P6SM SCT090 BKN200
     FM280300 20005KT P6SM SCT200=

USA.gov is the U.S. government's official web portal to all federal, state and local government web resources and services.